| time (UTC) | temp F | wind direction | speed MPH | gust MPH | rain 1hr in | rain 24hr in | rain mn in | humidity % | barometer mb |
| 20260508075106 | 53 | 14 | 0.0 | 3.0 | 0.00 | 0.28 | 0.71 | 100 | 1014.6 |
| 20260508074548 | 53 | 14 | 0.0 | 3.0 | 0.00 | 0.28 | 0.71 | 100 | 1014.2 |
| 20260508074015 | 53 | 14 | 0.0 | 3.0 | 0.00 | 0.29 | 0.71 | 100 | 1014.6 |
| 20260508073508 | 53 | 14 | 0.0 | 3.0 | 0.00 | 0.30 | 0.71 | 100 | 1014.6 |
| 20260508072945 | 53 | 14 | 0.0 | 3.0 | 0.00 | 0.30 | 0.71 | 100 | 1014.6 |
| 20260508072424 | 52 | 14 | 0.0 | 3.0 | 0.00 | 0.30 | 0.71 | 100 | 1014.2 |
| 20260508071904 | 52 | 14 | 0.0 | 3.0 | 0.00 | 0.30 | 0.71 | 100 | 1014.2 |
| 20260508071348 | 52 | 14 | 0.0 | 3.0 | 0.00 | 0.30 | 0.71 | 100 | 1014.6 |
| 20260508070828 | 52 | 14 | 0.0 | 3.0 | 0.00 | 0.30 | 0.71 | 100 | 1014.6 |
| 20260508070304 | 52 | 14 | 0.0 | 3.0 | 0.00 | 0.30 | 0.71 | 100 | 1014.2 |
| 20260508065731 | 53 | 14 | 0.0 | 3.0 | 0.00 | 0.30 | 0.71 | 100 | 1014.2 |
| 20260508065226 | 52 | 14 | 0.0 | 3.0 | 0.00 | 0.30 | 0.71 | 100 | 1014.6 |
| 20260508064702 | 53 | 14 | 0.0 | 3.0 | 0.00 | 0.30 | 0.71 | 100 | 1014.2 |
| 20260508064147 | 53 | 14 | 0.0 | 3.0 | 0.00 | 0.30 | 0.71 | 100 | 1014.2 |
| 20260508063626 | 53 | 14 | 0.0 | 3.0 | 0.00 | 0.30 | 0.71 | 100 | 1014.6 |
| 20260508063107 | 53 | 14 | 0.0 | 3.0 | 0.00 | 0.30 | 0.71 | 100 | 1014.2 |
| 20260508062534 | 53 | 14 | 0.0 | 3.0 | 0.00 | 0.30 | 0.71 | 100 | 1014.6 |
| 20260508062008 | 53 | 14 | 0.0 | 3.0 | 0.00 | 0.30 | 0.71 | 100 | 1014.2 |
| 20260508061459 | 53 | 14 | 0.0 | 3.0 | 0.00 | 0.30 | 0.71 | 100 | 1014.2 |
| 20260508060951 | 53 | 14 | 0.0 | 3.0 | 0.00 | 0.30 | 0.71 | 100 | 1014.2 |
| 20260508060416 | 53 | 14 | 0.0 | 3.0 | 0.00 | 0.30 | 0.71 | 100 | 1014.6 |
| 20260508055902 | 53 | 14 | 0.0 | 3.0 | 0.00 | 0.30 | 0.71 | 100 | 1014.6 |
| 20260508055336 | 53 | 14 | 2.0 | 3.0 | 0.00 | 0.30 | 0.71 | 100 | 1014.2 |
| 20260508054820 | 53 | 14 | 0.0 | 3.0 | 0.00 | 0.30 | 0.71 | 100 | 1014.2 |
| 20260508054255 | 53 | 14 | 0.0 | 3.0 | 0.00 | 0.30 | 0.71 | 100 | 1014.2 |
| 20260508053736 | 53 | 14 | 0.0 | 3.0 | 0.00 | 0.30 | 0.71 | 100 | 1014.2 |
| 20260508053219 | 53 | 14 | 0.0 | 3.0 | 0.00 | 0.30 | 0.71 | 100 | 1013.9 |
| 20260508052651 | 53 | 14 | 0.0 | 3.0 | 0.00 | 0.30 | 0.71 | 100 | 1014.6 |
| 20260508052132 | 53 | 14 | 0.0 | 3.0 | 0.00 | 0.30 | 0.71 | 100 | 1014.6 |
| 20260508051606 | 54 | 14 | 0.0 | 3.0 | 0.00 | 0.30 | 0.71 | 100 | 1014.2 |
| 20260508051051 | 54 | 14 | 0.0 | 3.0 | 0.00 | 0.30 | 0.71 | 100 | 1013.9 |
| 20260508050528 | 54 | 14 | 0.0 | 3.0 | 0.00 | 0.30 | 0.71 | 100 | 1014.2 |
| 20260508045954 | 54 | 14 | 0.0 | 3.0 | 0.00 | 0.30 | 0.71 | 100 | 1013.9 |
| 20260508045444 | 54 | 14 | 0.0 | 3.0 | 0.00 | 0.31 | 0.71 | 100 | 1013.9 |
| 20260508044910 | 54 | 14 | 0.0 | 3.0 | 0.00 | 0.31 | 0.71 | 100 | 1014.2 |
| 20260508044342 | 54 | 14 | 0.0 | 3.0 | 0.00 | 0.32 | 0.71 | 100 | 1013.9 |
| 20260508043836 | 54 | 14 | 0.0 | 3.0 | 0.00 | 0.33 | 0.71 | 100 | 1013.9 |
| 20260508043316 | 54 | 14 | 0.0 | 3.0 | 0.00 | 0.33 | 0.71 | 100 | 1014.2 |
| 20260508042756 | 54 | 14 | 0.0 | 3.0 | 0.00 | 0.33 | 0.71 | 100 | 1013.9 |
| 20260508042233 | 54 | 14 | 0.0 | 3.0 | 0.00 | 0.33 | 0.71 | 100 | 1013.9 |
| 20260508041655 | 54 | 14 | 0.0 | 3.0 | 0.00 | 0.33 | 0.71 | 100 | 1014.2 |
| 20260508041132 | 54 | 14 | 1.0 | 3.0 | 0.00 | 0.33 | 0.71 | 100 | 1014.2 |
| 20260508040624 | 54 | 14 | 0.0 | 2.0 | 0.00 | 0.33 | 0.71 | 100 | 1013.9 |
| 20260508040114 | 54 | 14 | 1.0 | 1.0 | 0.00 | 0.33 | 0.71 | 100 | 1014.2 |
| 20260508035541 | 54 | 14 | 0.0 | 14.0 | 0.00 | 0.33 | 0.71 | 100 | 1013.9 |
| 20260508035016 | 54 | 14 | 3.0 | 14.0 | 0.00 | 0.34 | 0.71 | 100 | 1014.2 |
| 20260508034442 | 54 | 14 | 0.0 | 14.0 | 0.00 | 0.34 | 0.71 | 100 | 1013.9 |
| 20260508033915 | 54 | 14 | 0.0 | 14.0 | 0.00 | 0.35 | 0.71 | 100 | 1013.5 |
| 20260508033406 | 54 | 14 | 0.0 | 14.0 | 0.00 | 0.35 | 0.71 | 100 | 1013.2 |
| 20260508032845 | 54 | 14 | 0.0 | 14.0 | 0.00 | 0.35 | 0.71 | 100 | 1013.5 |
| 20260508032324 | 54 | 14 | 1.0 | 14.0 | 0.00 | 0.35 | 0.71 | 100 | 1013.2 |
| 20260508031814 | 54 | 14 | 0.0 | 14.0 | 0.00 | 0.35 | 0.71 | 100 | 1013.2 |
| 20260508031233 | 54 | 14 | 0.0 | 14.0 | 0.00 | 0.35 | 0.71 | 100 | 1012.9 |
| 20260508030705 | 54 | 14 | 0.0 | 14.0 | 0.00 | 0.35 | 0.71 | 100 | 1013.2 |
| 20260508030145 | 54 | 14 | 0.0 | 14.0 | 0.00 | 0.35 | 0.71 | 100 | 1013.2 |
| 20260508025638 | 54 | 14 | 0.0 | 14.0 | 0.00 | 0.35 | 0.71 | 100 | 1012.5 |
| 20260508025052 | 54 | 11 | 0.0 | 14.0 | 0.00 | 0.35 | 0.71 | 100 | 1012.5 |
| 20260508024527 | 54 | 12 | 1.0 | 14.0 | 0.00 | 0.35 | 0.71 | 100 | 1012.9 |
| 20260508024018 | 54 | 11 | 0.0 | 14.0 | 0.00 | 0.35 | 0.71 | 100 | 1013.2 |
| 20260508023449 | 54 | 12 | 1.0 | 14.0 | 0.00 | 0.35 | 0.71 | 100 | 1012.9 |
| 20260508022912 | 54 | 11 | 1.0 | 14.0 | 0.00 | 0.35 | 0.71 | 100 | 1012.9 |
| 20260508022349 | 54 | 11 | 1.0 | 14.0 | 0.00 | 0.35 | 0.71 | 100 | 1012.9 |
| 20260508021844 | 54 | 12 | 1.0 | 14.0 | 0.00 | 0.35 | 0.71 | 100 | 1012.9 |
| 20260508021319 | 54 | 11 | 0.0 | 14.0 | 0.00 | 0.35 | 0.71 | 100 | 1013.2 |
| 20260508020813 | 54 | 11 | 0.0 | 14.0 | 0.00 | 0.35 | 0.71 | 100 | 1013.2 |
| 20260508020244 | 54 | 11 | 1.0 | 14.0 | 0.00 | 0.35 | 0.71 | 100 | 1012.9 |
| 20260508015720 | 54 | 39 | 4.0 | 14.0 | 0.00 | 0.35 | 0.71 | 100 | 1012.5 |
| 20260508015205 | 54 | 39 | 0.0 | 14.0 | 0.00 | 0.35 | 0.71 | 100 | 1012.5 |
| 20260508014653 | 54 | 39 | 0.0 | 14.0 | 0.00 | 0.35 | 0.71 | 100 | 1012.5 |
| 20260508014119 | 54 | 39 | 1.0 | 14.0 | 0.00 | 0.35 | 0.71 | 100 | 1012.5 |
| 20260508013615 | 54 | 39 | 0.0 | 14.0 | 0.00 | 0.35 | 0.71 | 100 | 1012.5 |
| 20260508013038 | 54 | 39 | 0.0 | 14.0 | 0.00 | 0.35 | 0.71 | 100 | 1012.2 |
| 20260508012525 | 54 | 39 | 0.0 | 14.0 | 0.00 | 0.35 | 0.71 | 100 | 1012.5 |
| 20260508011958 | 54 | 39 | 2.0 | 14.0 | 0.00 | 0.35 | 0.71 | 100 | 1012.2 |
| 20260508011456 | 54 | 39 | 0.0 | 14.0 | 0.00 | 0.35 | 0.71 | 100 | 1011.9 |
| 20260508010925 | 54 | 7 | 1.0 | 14.0 | 0.00 | 0.35 | 0.71 | 100 | 1011.9 |
| 20260508010413 | 54 | 8 | 0.0 | 14.0 | 0.00 | 0.35 | 0.71 | 100 | 1000.3 |
| 20260508005851 | 54 | 280 | 2.0 | 14.0 | 0.00 | 0.35 | 0.71 | 100 | 1011.9 |
| 20260507233152 | 55 | 105 | 6.0 | 14.0 | 0.00 | 0.34 | 0.71 | 100 | 1010.5 |
| 20260507232647 | 55 | 35 | 5.0 | 14.0 | 0.00 | 0.34 | 0.71 | 100 | 1010.2 |
| 20260507232140 | 55 | 57 | 5.0 | 14.0 | 0.00 | 0.34 | 0.71 | 100 | 1010.2 |
| 20260507231633 | 55 | 33 | 2.0 | 14.0 | 0.00 | 0.34 | 0.71 | 100 | 1010.5 |
| 20260507231132 | 55 | 12 | 1.0 | 14.0 | 0.00 | 0.34 | 0.71 | 100 | 1010.2 |
| 20260507230621 | 55 | 56 | 3.0 | 14.0 | 0.00 | 0.34 | 0.71 | 100 | 1010.2 |
| 20260507230057 | 55 | 111 | 4.0 | 14.0 | 0.00 | 0.34 | 0.71 | 100 | 1010.2 |
| 20260507225543 | 56 | 67 | 2.0 | 14.0 | 0.00 | 0.34 | 0.71 | 100 | 1010.2 |
| 20260507225008 | 56 | 86 | 3.0 | 14.0 | 0.00 | 0.34 | 0.71 | 100 | 1009.5 |
| 20260507224459 | 56 | 57 | 5.0 | 14.0 | 0.00 | 0.34 | 0.71 | 100 | 1010.2 |
| 20260507223932 | 56 | 346 | 3.0 | 14.0 | 0.00 | 0.34 | 0.71 | 100 | 1010.2 |
| 20260507223420 | 56 | 97 | 10.0 | 14.0 | 0.00 | 0.34 | 0.71 | 100 | 1009.8 |
| 20260507222912 | 56 | 287 | 5.0 | 14.0 | 0.00 | 0.34 | 0.71 | 100 | 1010.2 |
| 20260507222357 | 56 | 29 | 4.0 | 14.0 | 0.00 | 0.34 | 0.71 | 100 | 1009.5 |
| 20260507221852 | 57 | 48 | 7.0 | 14.0 | 0.00 | 0.34 | 0.71 | 100 | 1009.5 |
| 20260507221327 | 57 | 46 | 3.0 | 14.0 | 0.00 | 0.34 | 0.71 | 100 | 1009.8 |
| 20260507220820 | 57 | 34 | 4.0 | 14.0 | 0.00 | 0.34 | 0.71 | 100 | 1010.2 |
| 20260507220300 | 58 | 7 | 3.0 | 14.0 | 0.00 | 0.34 | 0.71 | 100 | 1009.5 |
| 20260507215750 | 58 | 73 | 4.0 | 14.0 | 0.00 | 0.34 | 0.71 | 100 | 1009.8 |
| 20260507215248 | 58 | 328 | 2.0 | 14.0 | 0.00 | 0.34 | 0.71 | 100 | 1009.8 |
| 20260507214208 | 59 | 17 | 1.0 | 14.0 | 0.00 | 0.34 | 0.71 | 100 | 1009.1 |
| 20260507213649 | 59 | 26 | 1.0 | 14.0 | 0.00 | 0.34 | 0.71 | 100 | 1009.5 |
| 20260507213118 | 60 | 36 | 2.0 | 14.0 | 0.00 | 0.34 | 0.71 | 100 | 1009.1 |
| 20260507212609 | 60 | 18 | 4.0 | 14.0 | 0.00 | 0.34 | 0.71 | 100 | 1008.8 |
| 20260507212102 | 60 | 39 | 3.0 | 14.0 | 0.00 | 0.34 | 0.71 | 100 | 1008.8 |
| 20260507211533 | 60 | 32 | 7.0 | 14.0 | 0.00 | 0.34 | 0.71 | 100 | 1008.8 |
| 20260507210954 | 61 | 18 | 4.0 | 14.0 | 0.00 | 0.34 | 0.71 | 100 | 1008.8 |
| 20260507210440 | 61 | 73 | 4.0 | 14.0 | 0.00 | 0.34 | 0.71 | 100 | 1008.8 |
| 20260507205916 | 62 | 61 | 4.0 | 14.0 | 0.00 | 0.34 | 0.71 | 100 | 1008.5 |
| 20260507205340 | 61 | 15 | 4.0 | 14.0 | 0.00 | 0.34 | 0.71 | 100 | 1008.5 |
| 20260507204836 | 62 | 37 | 2.0 | 14.0 | 0.00 | 0.34 | 0.71 | 100 | 1008.5 |
| 20260507204300 | 62 | 26 | 3.0 | 14.0 | 0.00 | 0.34 | 0.71 | 100 | 1008.1 |
| 20260507203752 | 62 | 55 | 4.0 | 14.0 | 0.00 | 0.34 | 0.71 | 100 | 1008.1 |
| 20260507203224 | 62 | 23 | 7.0 | 14.0 | 0.00 | 0.34 | 0.71 | 100 | 1008.1 |
| 20260507202652 | 62 | 41 | 3.0 | 14.0 | 0.00 | 0.34 | 0.71 | 100 | 1008.1 |
| 20260507202139 | 62 | 334 | 11.0 | 14.0 | 0.00 | 0.34 | 0.71 | 100 | 1008.1 |
| 20260507201620 | 63 | 36 | 3.0 | 14.0 | 0.00 | 0.34 | 0.71 | 100 | 1008.1 |
| 20260507201045 | 63 | 296 | 8.0 | 14.0 | 0.00 | 0.34 | 0.71 | 100 | 1008.1 |
| 20260507200528 | 65 | 43 | 5.0 | 14.0 | 0.00 | 0.34 | 0.71 | 100 | 1008.1 |
| 20260507200004 | 69 | 289 | 7.0 | 14.0 | 0.00 | 0.34 | 0.71 | 100 | 1008.1 |
| 20260507195435 | 72 | 21 | 4.0 | 13.0 | 0.00 | 0.34 | 0.71 | 100 | 1007.8 |
| 20260507194921 | 73 | 320 | 3.0 | 13.0 | 0.00 | 0.34 | 0.71 | 100 | 1007.5 |
| 20260507194408 | 72 | 229 | 4.0 | 13.0 | 0.00 | 0.34 | 0.71 | 100 | 1007.5 |
| 20260507193848 | 73 | 292 | 4.0 | 13.0 | 0.00 | 0.34 | 0.71 | 100 | 1007.5 |
| 20260507193340 | 73 | 352 | 6.0 | 13.0 | 0.00 | 0.34 | 0.71 | 100 | 1007.8 |
| 20260507192803 | 73 | 282 | 5.0 | 13.0 | 0.00 | 0.34 | 0.71 | 100 | 1007.8 |
| 20260507192237 | 73 | 235 | 5.0 | 13.0 | 0.00 | 0.34 | 0.71 | 100 | 1007.8 |
| 20260507191708 | 72 | 211 | 0.0 | 13.0 | 0.00 | 0.34 | 0.71 | 100 | 1007.8 |
| 20260507191145 | 71 | 350 | 6.0 | 13.0 | 0.00 | 0.34 | 0.71 | 100 | 1007.5 |
| 20260507190630 | 71 | 227 | 4.0 | 13.0 | 0.00 | 0.34 | 0.71 | 100 | 1007.5 |
| 20260507190124 | 71 | 245 | 1.0 | 13.0 | 0.00 | 0.34 | 0.71 | 100 | 1007.5 |
| 20260507185607 | 70 | 243 | 1.0 | 13.0 | 0.00 | 0.34 | 0.71 | 100 | 1007.5 |
| 20260507185053 | 70 | 250 | 1.0 | 13.0 | 0.00 | 0.34 | 0.71 | 100 | 1008.1 |
| 20260507184537 | 70 | 214 | 4.0 | 13.0 | 0.00 | 0.34 | 0.71 | 100 | 1008.1 |
| 20260507184016 | 70 | 239 | 0.0 | 13.0 | 0.00 | 0.34 | 0.71 | 100 | 1008.1 |
| 20260507183456 | 70 | 236 | 1.0 | 13.0 | 0.00 | 0.34 | 0.71 | 100 | 1008.8 |
| 20260507182941 | 69 | 1 | 1.0 | 13.0 | 0.00 | 0.34 | 0.71 | 100 | 1008.8 |
| 20260507182429 | 69 | 206 | 5.0 | 13.0 | 0.00 | 0.34 | 0.71 | 100 | 1008.5 |
| 20260507181909 | 69 | 342 | 0.0 | 13.0 | 0.00 | 0.34 | 0.71 | 100 | 1008.8 |
| 20260507181358 | 69 | 337 | 4.0 | 13.0 | 0.00 | 0.34 | 0.71 | 100 | 1008.5 |
| 20260507180848 | 69 | 212 | 0.0 | 13.0 | 0.00 | 0.34 | 0.71 | 100 | 1008.1 |
| 20260507180327 | 69 | 241 | 5.0 | 13.0 | 0.00 | 0.34 | 0.71 | 100 | 1008.5 |
| 20260507175815 | 69 | 246 | 1.0 | 13.0 | 0.00 | 0.34 | 0.71 | 100 | 1008.1 |
| 20260507175249 | 69 | 221 | 3.0 | 13.0 | 0.00 | 0.34 | 0.71 | 100 | 1008.1 |
| 20260507174728 | 69 | 235 | 1.0 | 13.0 | 0.00 | 0.34 | 0.71 | 100 | 1008.5 |
| 20260507174219 | 69 | 241 | 0.0 | 13.0 | 0.01 | 0.34 | 0.71 | 100 | 1007.8 |
| 20260507173650 | 69 | 228 | 2.0 | 13.0 | 0.02 | 0.34 | 0.71 | 100 | 1008.5 |
| 20260507173132 | 68 | 213 | 4.0 | 13.0 | 0.03 | 0.34 | 0.71 | 100 | 1008.8 |
| 20260507172619 | 68 | 227 | 1.0 | 13.0 | 0.04 | 0.34 | 0.71 | 100 | 1008.5 |
| 20260507172050 | 68 | 253 | 5.0 | 13.0 | 0.04 | 0.34 | 0.71 | 100 | 1008.8 |
| 20260507171534 | 68 | 238 | 5.0 | 13.0 | 0.05 | 0.34 | 0.71 | 100 | 1008.8 |
| 20260507171011 | 68 | 236 | 4.0 | 13.0 | 0.05 | 0.34 | 0.71 | 100 | 1008.8 |
| 20260507170501 | 68 | 231 | 0.0 | 13.0 | 0.05 | 0.34 | 0.71 | 100 | 1009.1 |
| 20260507165946 | 68 | 235 | 3.0 | 13.0 | 0.05 | 0.34 | 0.71 | 100 | 1009.1 |
| 20260507165429 | 68 | 236 | 0.0 | 13.0 | 0.05 | 0.34 | 0.70 | 100 | 1008.8 |
| 20260507164913 | 67 | 238 | 2.0 | 13.0 | 0.06 | 0.34 | 0.70 | 100 | 1009.1 |
| 20260507164355 | 68 | 229 | 2.0 | 13.0 | 0.06 | 0.33 | 0.70 | 100 | 1009.5 |
| 20260507163837 | 68 | 262 | 1.0 | 13.0 | 0.06 | 0.33 | 0.69 | 100 | 1010.2 |
| 20260507163311 | 68 | 293 | 6.0 | 13.0 | 0.05 | 0.31 | 0.68 | 100 | 1009.8 |
| 20260507162800 | 68 | 236 | 4.0 | 13.0 | 0.04 | 0.31 | 0.67 | 100 | 1009.8 |
| 20260507162239 | 68 | 215 | 2.0 | 13.0 | 0.04 | 0.30 | 0.67 | 100 | 1009.8 |
| 20260507161723 | 68 | 228 | 5.0 | 13.0 | 0.04 | 0.30 | 0.66 | 100 | 1009.8 |
| 20260507161150 | 68 | 246 | 2.0 | 13.0 | 0.04 | 0.30 | 0.66 | 100 | 1009.5 |
| 20260507160627 | 68 | 243 | 3.0 | 13.0 | 0.04 | 0.30 | 0.66 | 100 | 1009.5 |
| 20260507160108 | 68 | 247 | 3.0 | 13.0 | 0.04 | 0.29 | 0.66 | 100 | 1009.8 |
| 20260507155606 | 68 | 241 | 6.0 | 13.0 | 0.04 | 0.29 | 0.65 | 100 | 1009.8 |
| 20260507155104 | 68 | 243 | 0.0 | 13.0 | 0.04 | 0.28 | 0.65 | 100 | 1009.8 |
| 20260507154556 | 68 | 284 | 1.0 | 13.0 | 0.04 | 0.28 | 0.65 | 100 | 1009.8 |
| 20260507154041 | 68 | 197 | 1.0 | 13.0 | 0.04 | 0.27 | 0.63 | 100 | 1009.5 |
| 20260507153521 | 68 | 224 | 3.0 | 13.0 | 0.04 | 0.27 | 0.63 | 100 | 1009.5 |
| 20260507153002 | 68 | 243 | 2.0 | 13.0 | 0.04 | 0.26 | 0.63 | 100 | 1009.5 |
| 20260507152436 | 68 | 215 | 2.0 | 13.0 | 0.05 | 0.26 | 0.63 | 100 | 1010.2 |
| 20260507151923 | 68 | 226 | 0.0 | 13.0 | 0.05 | 0.26 | 0.63 | 100 | 1009.8 |
| 20260507151410 | 68 | 226 | 2.0 | 13.0 | 0.05 | 0.26 | 0.63 | 100 | 1009.8 |
| 20260507150855 | 68 | 234 | 0.0 | 13.0 | 0.04 | 0.26 | 0.62 | 100 | 1010.2 |
| 20260507150343 | 68 | 222 | 4.0 | 13.0 | 0.04 | 0.26 | 0.62 | 100 | 1010.5 |
| 20260507145834 | 68 | 222 | 2.0 | 13.0 | 0.04 | 0.25 | 0.62 | 100 | 1010.5 |
| 20260507145306 | 68 | 217 | 3.0 | 13.0 | 0.04 | 0.25 | 0.61 | 100 | 1010.5 |
| 20260507144745 | 68 | 219 | 2.0 | 13.0 | 0.03 | 0.24 | 0.61 | 100 | 1010.2 |
| 20260507144239 | 68 | 248 | 6.0 | 13.0 | 0.02 | 0.23 | 0.60 | 100 | 1010.5 |
| 20260507143724 | 68 | 245 | 3.0 | 13.0 | 0.02 | 0.23 | 0.59 | 100 | 1010.2 |
| 20260507143204 | 68 | 213 | 4.0 | 13.0 | 0.01 | 0.22 | 0.59 | 100 | 1010.5 |
| 20260507142656 | 69 | 255 | 0.0 | 13.0 | 0.01 | 0.22 | 0.59 | 100 | 1010.5 |
| 20260507142145 | 69 | 275 | 0.0 | 13.0 | 0.00 | 0.21 | 0.58 | 100 | 1010.5 |
| 20260507141631 | 69 | 272 | 1.0 | 13.0 | 0.00 | 0.21 | 0.58 | 100 | 1010.5 |
| 20260507141116 | 69 | 284 | 4.0 | 13.0 | 0.00 | 0.21 | 0.58 | 100 | 1010.5 |
| 20260507140604 | 69 | 294 | 2.0 | 13.0 | 0.00 | 0.21 | 0.58 | 100 | 1010.5 |
| 20260507140034 | 69 | 211 | 0.0 | 13.0 | 0.00 | 0.21 | 0.58 | 100 | 1010.5 |
| 20260507135514 | 68 | 271 | 0.0 | 13.0 | 0.00 | 0.21 | 0.58 | 100 | 1010.2 |
| 20260507134959 | 68 | 228 | 3.0 | 13.0 | 0.00 | 0.21 | 0.58 | 100 | 1010.5 |
| 20260507134431 | 68 | 248 | 0.0 | 13.0 | 0.00 | 0.21 | 0.58 | 100 | 1009.8 |
| 20260507133919 | 68 | 320 | 5.0 | 13.0 | 0.00 | 0.21 | 0.58 | 100 | 1010.2 |
| 20260507133405 | 68 | 212 | 0.0 | 13.0 | 0.00 | 0.21 | 0.58 | 100 | 1010.2 |
| 20260507132841 | 68 | 214 | 4.0 | 13.0 | 0.00 | 0.21 | 0.58 | 100 | 1010.2 |
| 20260507132322 | 68 | 229 | 5.0 | 13.0 | 0.00 | 0.21 | 0.58 | 100 | 1009.8 |
| 20260507131814 | 68 | 231 | 0.0 | 13.0 | 0.00 | 0.21 | 0.58 | 100 | 1010.2 |
| 20260507131312 | 68 | 268 | 4.0 | 13.0 | 0.00 | 0.21 | 0.58 | 100 | 1009.8 |
| 20260507130754 | 68 | 139 | 1.0 | 13.0 | 0.00 | 0.21 | 0.58 | 100 | 1009.8 |
| 20260507130231 | 68 | 227 | 6.0 | 13.0 | 0.00 | 0.21 | 0.58 | 100 | 1010.2 |
| 20260507125712 | 68 | 269 | 2.0 | 13.0 | 0.00 | 0.21 | 0.58 | 100 | 1009.8 |
| 20260507125154 | 68 | 191 | 1.0 | 13.0 | 0.00 | 0.21 | 0.58 | 100 | 1010.2 |
| 20260507124624 | 68 | 223 | 4.0 | 13.0 | 0.00 | 0.21 | 0.58 | 100 | 1010.2 |
| 20260507124109 | 67 | 202 | 2.0 | 13.0 | 0.00 | 0.21 | 0.58 | 100 | 1010.2 |
| 20260507123549 | 67 | 249 | 4.0 | 13.0 | 0.00 | 0.21 | 0.58 | 100 | 1010.2 |
| 20260507123017 | 67 | 243 | 4.0 | 13.0 | 0.00 | 0.21 | 0.58 | 100 | 1010.8 |
| 20260507122500 | 67 | 240 | 3.0 | 13.0 | 0.00 | 0.21 | 0.58 | 100 | 1010.2 |
| 20260507121948 | 67 | 216 | 5.0 | 13.0 | 0.00 | 0.21 | 0.58 | 100 | 1010.5 |
| 20260507121443 | 67 | 238 | 3.0 | 13.0 | 0.00 | 0.21 | 0.58 | 100 | 1010.8 |
| 20260507120934 | 67 | 285 | 6.0 | 13.0 | 0.00 | 0.21 | 0.58 | 100 | 1010.8 |
| 20260507120414 | 67 | 195 | 4.0 | 13.0 | 0.00 | 0.21 | 0.58 | 100 | 1010.8 |
| 20260507115849 | 67 | 221 | 9.0 | 13.0 | 0.01 | 0.21 | 0.58 | 100 | 1011.2 |
| 20260507115334 | 67 | 230 | 1.0 | 13.0 | 0.01 | 0.21 | 0.58 | 100 | 1011.2 |
| 20260507114826 | 67 | 259 | 6.0 | 13.0 | 0.01 | 0.21 | 0.58 | 100 | 1011.2 |
| 20260507114308 | 67 | 230 | 7.0 | 13.0 | 0.01 | 0.21 | 0.58 | 100 | 1011.2 |
| 20260507113759 | 67 | 232 | 6.0 | 13.0 | 0.01 | 0.21 | 0.58 | 100 | 1010.8 |
| 20260507113238 | 67 | 225 | 5.0 | 13.0 | 0.01 | 0.21 | 0.58 | 100 | 1011.2 |
| 20260507112734 | 67 | 210 | 8.0 | 13.0 | 0.01 | 0.21 | 0.57 | 100 | 1010.8 |
| 20260507112229 | 67 | 223 | 4.0 | 13.0 | 0.01 | 0.21 | 0.57 | 100 | 1010.8 |
| 20260507111711 | 67 | 243 | 6.0 | 13.0 | 0.01 | 0.21 | 0.57 | 100 | 1011.2 |
| 20260507111158 | 67 | 231 | 6.0 | 13.0 | 0.02 | 0.21 | 0.57 | 100 | 1010.8 |
| 20260507110636 | 67 | 228 | 9.0 | 13.0 | 0.02 | 0.21 | 0.57 | 100 | 1011.2 |
| 20260507110121 | 67 | 265 | 4.0 | 10.0 | 0.02 | 0.21 | 0.57 | 100 | 1011.2 |
| 20260507105557 | 67 | 218 | 5.0 | 10.0 | 0.02 | 0.20 | 0.57 | 100 | 1010.8 |
| 20260507105044 | 67 | 239 | 2.0 | 10.0 | 0.02 | 0.20 | 0.57 | 100 | 1010.8 |
| 20260507104530 | 67 | 233 | 3.0 | 10.0 | 0.02 | 0.20 | 0.57 | 100 | 1010.8 |
| 20260507104015 | 67 | 246 | 3.0 | 10.0 | 0.02 | 0.20 | 0.57 | 100 | 1010.8 |
| 20260507103450 | 66 | 137 | 8.0 | 10.0 | 0.02 | 0.20 | 0.57 | 100 | 1010.8 |
| 20260507102928 | 67 | 229 | 7.0 | 9.0 | 0.02 | 0.20 | 0.57 | 100 | 1010.5 |
| 20260507102403 | 66 | 233 | 5.0 | 9.0 | 0.02 | 0.20 | 0.56 | 100 | 1010.5 |
| 20260507101846 | 66 | 187 | 2.0 | 9.0 | 0.02 | 0.20 | 0.56 | 100 | 1010.8 |
| 20260507101333 | 66 | 189 | 1.0 | 9.0 | 0.02 | 0.19 | 0.56 | 100 | 1010.8 |
| 20260507100807 | 66 | 229 | 5.0 | 9.0 | 0.02 | 0.19 | 0.56 | 100 | 1010.2 |
| 20260507100300 | 66 | 231 | 4.0 | 8.0 | 0.02 | 0.19 | 0.56 | 100 | 1010.2 |
| 20260507095741 | 66 | 59 | 3.0 | 8.0 | 0.02 | 0.19 | 0.55 | 100 | 1009.8 |
| 20260507095227 | 66 | 234 | 4.0 | 8.0 | 0.03 | 0.18 | 0.55 | 100 | 1010.2 |
| 20260507094712 | 66 | 202 | 0.0 | 8.0 | 0.04 | 0.18 | 0.55 | 100 | 1010.5 |
| 20260507094207 | 66 | 231 | 2.0 | 8.0 | 0.05 | 0.18 | 0.55 | 100 | 1010.8 |
| 20260507093629 | 66 | 233 | 3.0 | 8.0 | 0.06 | 0.18 | 0.55 | 100 | 1010.8 |
| 20260507093119 | 66 | 237 | 1.0 | 8.0 | 0.07 | 0.18 | 0.55 | 100 | 1010.8 |
| 20260507092607 | 66 | 233 | 1.0 | 8.0 | 0.07 | 0.18 | 0.54 | 100 | 1010.8 |
| 20260507092040 | 66 | 241 | 0.0 | 8.0 | 0.08 | 0.18 | 0.54 | 100 | 1010.8 |
| 20260507091514 | 66 | 241 | 2.0 | 8.0 | 0.09 | 0.17 | 0.54 | 100 | 1010.8 |
| 20260507091009 | 66 | 243 | 0.0 | 8.0 | 0.09 | 0.17 | 0.54 | 100 | 1010.8 |
| 20260507090456 | 66 | 226 | 3.0 | 8.0 | 0.09 | 0.17 | 0.53 | 100 | 1010.8 |
| 20260507085941 | 66 | 270 | 3.0 | 8.0 | 0.09 | 0.16 | 0.53 | 100 | 1010.8 |
| 20260507085426 | 66 | 270 | 1.0 | 8.0 | 0.09 | 0.16 | 0.52 | 100 | 1011.2 |
| 20260507084923 | 66 | 270 | 2.0 | 8.0 | 0.09 | 0.15 | 0.52 | 100 | 1010.8 |
| 20260507084409 | 66 | 236 | 5.0 | 8.0 | 0.07 | 0.14 | 0.50 | 100 | 1011.5 |
| 20260507083845 | 66 | 233 | 3.0 | 8.0 | 0.07 | 0.13 | 0.50 | 100 | 1011.9 |
| 20260507083333 | 66 | 227 | 1.0 | 8.0 | 0.07 | 0.12 | 0.48 | 100 | 1012.2 |
| 20260507082817 | 66 | 238 | 7.0 | 8.0 | 0.05 | 0.10 | 0.47 | 100 | 1012.2 |
| 20260507082306 | 66 | 243 | 4.0 | 8.0 | 0.04 | 0.09 | 0.46 | 100 | 1011.9 |
| 20260507081744 | 66 | 220 | 4.0 | 8.0 | 0.04 | 0.09 | 0.45 | 100 | 1011.9 |
| 20260507081232 | 66 | 265 | 1.0 | 8.0 | 0.03 | 0.08 | 0.45 | 100 | 1011.5 |
| 20260507080717 | 66 | 266 | 1.0 | 8.0 | 0.03 | 0.08 | 0.44 | 100 | 1011.5 |
| 20260507080201 | 66 | 264 | 0.0 | 8.0 | 0.03 | 0.08 | 0.44 | 100 | 1011.9 |
| 20260507075644 | 66 | 220 | 0.0 | 8.0 | 0.02 | 0.07 | 0.44 | 100 | 1011.2 |